createdAt,value
2019-05-11T00:03:12.782Z,82.28
2019-05-11T00:08:18.221Z,83.20
2019-05-11T00:13:23.696Z,83.76
2019-05-11T00:18:29.006Z,83.22
2019-05-11T00:23:34.263Z,83.43
2019-05-11T00:28:39.588Z,82.99
2019-05-11T00:33:45.277Z,83.39
2019-05-11T00:38:51.498Z,83.66
2019-05-11T00:43:57.057Z,83.61
2019-05-11T00:49:02.690Z,84.55
2019-05-11T00:54:08.019Z,84.34
2019-05-11T00:59:21.536Z,83.71
2019-05-11T01:04:20.293Z,84.83
2019-05-11T01:09:25.652Z,84.80
2019-05-11T01:14:31.233Z,84.61
2019-05-11T01:19:36.862Z,84.85
2019-05-11T01:24:42.392Z,84.57
2019-05-11T01:29:47.693Z,84.54
2019-05-11T01:34:53.614Z,85.44
2019-05-11T01:39:58.914Z,85.95
2019-05-11T01:45:04.834Z,85.55
2019-05-11T01:50:10.238Z,85.68
2019-05-11T01:55:16.136Z,86.57
2019-05-11T02:00:21.341Z,85.83
2019-05-11T02:05:29.916Z,87.33
2019-05-11T02:10:35.135Z,85.92
2019-05-11T02:15:40.394Z,87.09
2019-05-11T02:20:46.090Z,86.20
2019-05-11T02:25:51.401Z,86.11
2019-05-11T02:30:56.922Z,86.44
2019-05-11T02:36:02.609Z,86.43
2019-05-11T02:41:07.967Z,86.26
2019-05-11T02:46:13.752Z,86.11
2019-05-11T02:51:21.720Z,85.95
2019-05-11T02:56:27.109Z,86.15
2019-05-11T03:01:32.455Z,86.02
2019-05-11T03:06:37.905Z,86.30
2019-05-11T03:11:55.186Z,85.77
2019-05-11T03:16:52.347Z,85.93
2019-05-11T03:21:57.948Z,86.03
2019-05-11T03:27:03.443Z,86.06
2019-05-11T03:32:08.686Z,86.07
2019-05-11T03:37:14.301Z,86.58
2019-05-11T03:42:19.951Z,86.53
2019-05-11T03:47:25.191Z,86.64
2019-05-11T03:52:30.759Z,86.99
2019-05-11T03:57:36.102Z,86.80
2019-05-11T04:02:41.373Z,86.56
2019-05-11T04:07:46.945Z,86.65
2019-05-11T04:12:52.159Z,86.19
2019-05-11T04:17:57.760Z,86.26
2019-05-11T04:23:02.990Z,86.20
2019-05-11T04:28:08.213Z,86.12
2019-05-11T04:33:13.446Z,86.16
2019-05-11T04:38:18.680Z,85.88
2019-05-11T04:43:23.893Z,85.92
2019-05-11T04:48:30.520Z,85.20
2019-05-11T04:53:35.755Z,85.75
2019-05-11T04:58:41.300Z,85.63
2019-05-11T05:03:47.639Z,85.55
2019-05-11T05:08:58.299Z,85.93
2019-05-11T05:14:01.854Z,86.02
2019-05-11T05:19:07.739Z,85.46
2019-05-11T05:24:12.958Z,85.90
2019-05-11T05:29:18.205Z,85.88
2019-05-11T05:34:24.072Z,85.72
2019-05-11T05:39:29.298Z,85.80
2019-05-11T05:44:34.886Z,85.87
2019-05-11T05:49:40.134Z,86.13
2019-05-11T05:54:45.702Z,85.61
2019-05-11T05:59:51.365Z,85.48
2019-05-11T06:04:56.585Z,85.06
2019-05-11T06:10:01.880Z,84.97
2019-05-11T06:15:07.368Z,85.17
2019-05-11T06:20:13.056Z,84.94
2019-05-11T06:25:19.038Z,84.94
2019-05-11T06:30:24.412Z,85.04
2019-05-11T06:35:29.756Z,85.02
2019-05-11T06:40:34.979Z,84.83
2019-05-11T06:45:40.291Z,84.79
2019-05-11T06:50:45.537Z,84.55
2019-05-11T06:55:50.801Z,84.68
2019-05-11T07:00:56.144Z,84.73
2019-05-11T07:06:01.374Z,84.42
2019-05-11T07:11:06.653Z,84.47
2019-05-11T07:16:11.902Z,84.12
2019-05-11T07:21:17.238Z,83.92
2019-05-11T07:26:22.430Z,83.48
2019-05-11T07:31:27.675Z,82.68
2019-05-11T07:36:32.909Z,82.44
2019-05-11T07:41:38.802Z,82.29
2019-05-11T07:46:44.510Z,82.37
2019-05-11T07:51:50.260Z,82.65
2019-05-11T07:56:55.546Z,82.81
2019-05-11T08:02:00.837Z,82.39
2019-05-11T08:07:07.703Z,82.21
2019-05-11T08:12:14.209Z,82.16
2019-05-11T08:17:19.518Z,82.73
2019-05-11T08:22:28.278Z,82.03
2019-05-11T08:27:33.076Z,81.98
2019-05-11T08:32:38.752Z,81.67
2019-05-11T08:37:44.016Z,81.72
2019-05-11T08:42:49.346Z,81.50
2019-05-11T08:47:57.745Z,81.81
2019-05-11T08:53:03.675Z,81.41
2019-05-11T08:58:09.232Z,81.13
2019-05-11T09:03:14.548Z,80.73
2019-05-11T09:08:20.893Z,80.35
2019-05-11T09:13:28.038Z,79.92
2019-05-11T09:18:33.598Z,78.82
2019-05-11T09:23:40.797Z,78.71
2019-05-11T09:28:47.565Z,78.89
2019-05-11T09:33:54.092Z,78.11
2019-05-11T09:38:59.941Z,78.21
2019-05-11T09:44:08.932Z,78.04
2019-05-11T09:49:18.537Z,78.53
2019-05-11T09:54:23.964Z,79.13
2019-05-11T09:59:29.193Z,79.15
2019-05-11T10:04:34.677Z,80.07
2019-05-11T10:09:40.292Z,79.75
2019-05-11T10:14:45.515Z,80.11
2019-05-11T10:19:51.729Z,80.06
2019-05-11T10:24:58.286Z,80.15
2019-05-11T10:30:03.784Z,80.39
2019-05-11T10:35:09.447Z,80.26
2019-05-11T10:40:15.021Z,80.43
2019-05-11T10:45:20.332Z,80.36
2019-05-11T10:50:28.608Z,80.62
2019-05-11T10:55:33.748Z,80.21
2019-05-11T11:00:39.103Z,79.90
2019-05-11T11:05:45.238Z,80.54
2019-05-11T11:10:50.562Z,80.06
2019-05-11T11:15:58.172Z,79.98
2019-05-11T11:21:02.741Z,78.82
2019-05-11T11:26:08.347Z,78.79
2019-05-11T11:31:13.693Z,78.68
2019-05-11T11:36:18.972Z,78.03
2019-05-11T11:41:24.268Z,78.00
2019-05-11T11:46:29.527Z,77.70
2019-05-11T11:51:34.766Z,78.33
2019-05-11T11:56:41.482Z,78.12
2019-05-11T12:01:48.795Z,77.58
2019-05-11T12:06:53.641Z,78.22
2019-05-11T12:11:58.973Z,77.26
2019-05-11T12:17:08.655Z,77.91
2019-05-11T12:22:13.577Z,78.07
2019-05-11T12:27:18.807Z,77.73
2019-05-11T12:32:30.889Z,79.51
2019-05-11T12:37:37.723Z,78.64
2019-05-11T12:42:43.369Z,80.25
2019-05-11T12:47:48.821Z,80.80
2019-05-11T12:52:56.092Z,80.52
2019-05-11T12:58:01.073Z,80.76
2019-05-11T13:03:08.033Z,81.69
2019-05-11T13:08:13.631Z,82.01
2019-05-11T13:13:19.292Z,82.20
2019-05-11T13:18:24.669Z,82.26
2019-05-11T13:23:29.976Z,81.99
2019-05-11T13:28:37.640Z,81.52
2019-05-11T13:33:42.325Z,81.19
2019-05-11T13:38:48.773Z,81.11
2019-05-11T13:43:54.016Z,81.11
2019-05-11T13:48:59.409Z,81.49
2019-05-11T13:54:07.748Z,81.18
2019-05-11T13:59:12.477Z,81.31
2019-05-11T14:04:18.427Z,80.94
2019-05-11T14:09:25.638Z,80.62
2019-05-11T14:14:31.089Z,79.87
2019-05-11T14:19:38.595Z,80.99
2019-05-11T14:24:44.163Z,80.85
2019-05-11T14:29:49.409Z,81.67
2019-05-11T14:34:54.899Z,82.27
2019-05-11T14:40:00.408Z,82.87
2019-05-11T14:45:08.243Z,82.24
2019-05-11T14:50:13.875Z,82.02
2019-05-11T14:55:20.340Z,81.57
2019-05-11T15:00:28.798Z,81.48
2019-05-11T15:05:34.744Z,81.52
2019-05-11T15:10:40.208Z,81.04
2019-05-11T15:15:48.545Z,80.90
2019-05-11T15:20:53.490Z,81.50
2019-05-11T15:25:59.324Z,80.77
2019-05-11T15:31:04.803Z,80.69
2019-05-11T15:36:10.123Z,81.01
2019-05-11T15:41:17.489Z,79.96
2019-05-11T15:46:22.320Z,79.53
2019-05-11T15:51:29.114Z,79.49
2019-05-11T15:56:34.438Z,78.95
2019-05-11T16:01:41.170Z,78.46
2019-05-11T16:06:46.578Z,77.29
2019-05-11T16:11:51.915Z,77.39
2019-05-11T16:16:58.476Z,78.13
2019-05-11T16:22:03.883Z,77.52
2019-05-11T16:27:09.176Z,77.48
2019-05-11T16:32:14.479Z,76.78
2019-05-11T16:37:20.883Z,76.45
2019-05-11T16:42:27.637Z,76.73
2019-05-11T16:47:33.451Z,76.73
2019-05-11T16:52:39.091Z,76.82
2019-05-11T16:57:48.350Z,75.92
2019-05-11T17:02:53.177Z,74.33
2019-05-11T17:07:58.859Z,73.70
2019-05-11T17:13:04.198Z,72.84
2019-05-11T17:18:09.658Z,72.04
2019-05-11T17:23:15.126Z,72.26
2019-05-11T17:28:20.391Z,71.20
2019-05-11T17:33:26.469Z,71.71
2019-05-11T17:38:33.639Z,71.05
2019-05-11T17:43:38.886Z,70.89
2019-05-11T17:48:45.303Z,70.55
2019-05-11T17:53:50.539Z,71.22
2019-05-11T17:58:55.957Z,71.78
2019-05-11T18:04:02.302Z,71.90
2019-05-11T18:09:08.642Z,71.79
2019-05-11T18:14:14.096Z,71.74
2019-05-11T18:19:19.842Z,72.36
2019-05-11T18:24:25.185Z,72.59
2019-05-11T18:29:30.802Z,72.61
2019-05-11T18:34:37.710Z,73.21
2019-05-11T18:39:43.067Z,73.11
2019-05-11T18:44:48.376Z,73.33
2019-05-11T18:49:54.648Z,73.67
2019-05-11T18:55:01.285Z,73.54
2019-05-11T19:00:08.238Z,73.48
2019-05-11T19:05:13.696Z,74.04
2019-05-11T19:10:19.012Z,74.20
2019-05-11T19:15:24.345Z,75.23
2019-05-11T19:20:44.266Z,75.86
2019-05-11T19:25:37.554Z,75.97
2019-05-11T19:30:43.983Z,76.35
2019-05-11T19:35:49.579Z,77.14
2019-05-11T19:40:55.208Z,77.13
2019-05-11T19:46:00.511Z,77.41
2019-05-11T19:51:09.156Z,78.18
2019-05-11T19:56:12.810Z,78.50
2019-05-11T20:01:18.900Z,78.70
2019-05-11T20:06:24.130Z,79.19
2019-05-11T20:11:29.328Z,79.82
2019-05-11T20:16:34.827Z,80.81
2019-05-11T20:21:40.156Z,82.08
2019-05-11T20:26:46.005Z,83.03
2019-05-11T20:31:51.322Z,82.23
2019-05-11T20:36:58.652Z,82.32
2019-05-11T20:42:04.481Z,82.46
2019-05-11T20:47:09.781Z,82.25
2019-05-11T20:52:17.690Z,82.39
2019-05-11T20:57:22.355Z,83.79
2019-05-11T21:02:28.795Z,84.03
2019-05-11T21:07:34.659Z,84.46
2019-05-11T21:12:40.272Z,84.04
2019-05-11T21:17:48.216Z,84.39
2019-05-11T21:22:53.685Z,84.49
2019-05-11T21:27:58.984Z,84.89
2019-05-11T21:33:04.286Z,85.15
2019-05-11T21:38:09.707Z,85.51
2019-05-11T21:43:15.431Z,85.42
2019-05-11T21:48:21.149Z,85.71
2019-05-11T21:53:28.646Z,85.43
2019-05-11T21:58:34.560Z,85.49
2019-05-11T22:03:40.184Z,85.08
2019-05-11T22:08:48.267Z,85.18
2019-05-11T22:13:54.656Z,85.20
2019-05-11T22:19:00.646Z,85.07
2019-05-11T22:24:08.479Z,85.86
2019-05-11T22:29:13.312Z,86.37
2019-05-11T22:34:19.433Z,86.68
2019-05-11T22:39:25.121Z,85.26
2019-05-11T22:44:31.512Z,85.30
2019-05-11T22:49:37.229Z,86.25
2019-05-11T22:54:42.534Z,85.97
2019-05-11T22:59:48.200Z,85.34
2019-05-11T23:04:53.712Z,85.56
2019-05-11T23:10:00.605Z,84.29
2019-05-11T23:15:12.430Z,83.75
2019-05-11T23:20:18.403Z,83.02
2019-05-11T23:25:23.803Z,82.47
2019-05-11T23:30:29.569Z,80.96
2019-05-11T23:35:34.986Z,79.70
2019-05-11T23:40:40.297Z,79.22
2019-05-11T23:45:45.632Z,79.04
2019-05-11T23:50:50.961Z,79.51
2019-05-11T23:55:57.992Z,80.59
